sensor_id;sensor_type;location;lat;lon;timestamp;P1;durP1;ratioP1;P2;durP2;ratioP2
45368;SDS011;51342;55.250;37.668;2024-03-06T00:02:06;4.60;;;2.70;;
45368;SDS011;51342;55.250;37.668;2024-03-06T00:04:38;5.53;;;2.80;;
45368;SDS011;51342;55.250;37.668;2024-03-06T00:07:10;4.83;;;2.97;;
45368;SDS011;51342;55.250;37.668;2024-03-06T00:09:42;4.10;;;2.57;;
45368;SDS011;51342;55.250;37.668;2024-03-06T00:12:13;5.27;;;2.83;;
45368;SDS011;51342;55.250;37.668;2024-03-06T00:14:45;5.63;;;3.10;;
45368;SDS011;51342;55.250;37.668;2024-03-06T00:17:16;4.17;;;2.77;;
45368;SDS011;51342;55.250;37.668;2024-03-06T00:19:48;5.50;;;2.97;;
45368;SDS011;51342;55.250;37.668;2024-03-06T00:22:19;4.43;;;2.80;;
45368;SDS011;51342;55.250;37.668;2024-03-06T00:24:51;6.37;;;3.27;;
45368;SDS011;51342;55.250;37.668;2024-03-06T00:27:22;7.17;;;3.33;;
45368;SDS011;51342;55.250;37.668;2024-03-06T00:29:54;5.20;;;3.07;;
45368;SDS011;51342;55.250;37.668;2024-03-06T00:32:25;7.03;;;3.30;;
45368;SDS011;51342;55.250;37.668;2024-03-06T00:34:57;7.30;;;3.67;;
45368;SDS011;51342;55.250;37.668;2024-03-06T00:37:28;6.47;;;3.13;;
45368;SDS011;51342;55.250;37.668;2024-03-06T00:40:00;5.77;;;2.93;;
45368;SDS011;51342;55.250;37.668;2024-03-06T00:42:31;5.30;;;2.80;;
45368;SDS011;51342;55.250;37.668;2024-03-06T00:45:03;5.80;;;2.80;;
45368;SDS011;51342;55.250;37.668;2024-03-06T00:47:34;5.23;;;2.60;;
45368;SDS011;51342;55.250;37.668;2024-03-06T00:50:06;5.40;;;2.60;;
45368;SDS011;51342;55.250;37.668;2024-03-06T00:52:38;4.70;;;2.70;;
45368;SDS011;51342;55.250;37.668;2024-03-06T00:55:09;4.97;;;2.73;;
45368;SDS011;51342;55.250;37.668;2024-03-06T00:57:41;8.37;;;3.53;;
45368;SDS011;51342;55.250;37.668;2024-03-06T01:00:13;6.87;;;3.10;;
45368;SDS011;51342;55.250;37.668;2024-03-06T01:02:46;6.40;;;3.20;;
45368;SDS011;51342;55.250;37.668;2024-03-06T01:05:18;6.20;;;2.77;;
45368;SDS011;51342;55.250;37.668;2024-03-06T01:07:49;5.13;;;3.00;;
45368;SDS011;51342;55.250;37.668;2024-03-06T01:10:21;4.23;;;2.57;;
45368;SDS011;51342;55.250;37.668;2024-03-06T01:12:53;3.60;;;2.03;;
45368;SDS011;51342;55.250;37.668;2024-03-06T01:15:24;4.43;;;2.10;;
45368;SDS011;51342;55.250;37.668;2024-03-06T01:17:56;4.17;;;1.90;;
45368;SDS011;51342;55.250;37.668;2024-03-06T01:20:28;4.53;;;1.97;;
45368;SDS011;51342;55.250;37.668;2024-03-06T01:23:00;6.03;;;1.93;;
45368;SDS011;51342;55.250;37.668;2024-03-06T01:25:32;5.07;;;2.03;;
45368;SDS011;51342;55.250;37.668;2024-03-06T01:28:03;4.43;;;1.80;;
45368;SDS011;51342;55.250;37.668;2024-03-06T01:30:35;2.80;;;1.80;;
45368;SDS011;51342;55.250;37.668;2024-03-06T01:33:06;4.17;;;1.87;;
45368;SDS011;51342;55.250;37.668;2024-03-06T01:35:38;3.30;;;1.73;;
45368;SDS011;51342;55.250;37.668;2024-03-06T01:38:09;3.23;;;1.70;;
45368;SDS011;51342;55.250;37.668;2024-03-06T01:40:44;2.73;;;1.33;;
45368;SDS011;51342;55.250;37.668;2024-03-06T01:43:23;3.80;;;2.10;;
45368;SDS011;51342;55.250;37.668;2024-03-06T01:45:56;6.67;;;1.70;;
45368;SDS011;51342;55.250;37.668;2024-03-06T01:48:28;4.57;;;1.30;;
45368;SDS011;51342;55.250;37.668;2024-03-06T01:51:02;2.20;;;1.43;;
45368;SDS011;51342;55.250;37.668;2024-03-06T01:53:35;3.93;;;1.53;;
45368;SDS011;51342;55.250;37.668;2024-03-06T01:56:07;2.93;;;1.40;;
45368;SDS011;51342;55.250;37.668;2024-03-06T01:58:42;2.97;;;1.40;;
45368;SDS011;51342;55.250;37.668;2024-03-06T02:01:19;2.37;;;1.20;;
45368;SDS011;51342;55.250;37.668;2024-03-06T02:03:52;3.13;;;1.30;;
45368;SDS011;51342;55.250;37.668;2024-03-06T02:06:25;3.73;;;1.47;;
45368;SDS011;51342;55.250;37.668;2024-03-06T02:08:57;4.00;;;1.50;;
45368;SDS011;51342;55.250;37.668;2024-03-06T02:11:28;2.47;;;1.47;;
45368;SDS011;51342;55.250;37.668;2024-03-06T02:14:00;3.77;;;1.50;;
45368;SDS011;51342;55.250;37.668;2024-03-06T02:16:31;3.63;;;1.57;;
45368;SDS011;51342;55.250;37.668;2024-03-06T02:19:03;2.47;;;1.43;;
45368;SDS011;51342;55.250;37.668;2024-03-06T02:21:34;3.43;;;1.43;;
45368;SDS011;51342;55.250;37.668;2024-03-06T02:24:06;3.30;;;1.63;;
45368;SDS011;51342;55.250;37.668;2024-03-06T02:26:39;5.77;;;2.37;;
45368;SDS011;51342;55.250;37.668;2024-03-06T02:29:10;3.90;;;1.90;;
45368;SDS011;51342;55.250;37.668;2024-03-06T02:31:42;3.23;;;2.00;;
45368;SDS011;51342;55.250;37.668;2024-03-06T02:34:13;4.90;;;2.07;;
45368;SDS011;51342;55.250;37.668;2024-03-06T02:36:45;4.90;;;1.87;;
45368;SDS011;51342;55.250;37.668;2024-03-06T02:39:16;4.53;;;2.07;;
45368;SDS011;51342;55.250;37.668;2024-03-06T02:41:48;4.00;;;2.43;;
45368;SDS011;51342;55.250;37.668;2024-03-06T02:44:19;4.13;;;2.17;;
45368;SDS011;51342;55.250;37.668;2024-03-06T02:46:51;6.47;;;2.70;;
45368;SDS011;51342;55.250;37.668;2024-03-06T02:49:23;4.53;;;2.67;;
45368;SDS011;51342;55.250;37.668;2024-03-06T02:51:54;4.20;;;2.60;;
45368;SDS011;51342;55.250;37.668;2024-03-06T02:54:26;5.00;;;2.93;;
45368;SDS011;51342;55.250;37.668;2024-03-06T02:56:57;5.40;;;2.90;;
45368;SDS011;51342;55.250;37.668;2024-03-06T02:59:28;6.47;;;3.10;;
45368;SDS011;51342;55.250;37.668;2024-03-06T03:02:00;5.03;;;2.93;;
45368;SDS011;51342;55.250;37.668;2024-03-06T03:04:33;5.23;;;2.90;;
45368;SDS011;51342;55.250;37.668;2024-03-06T03:07:04;6.43;;;3.40;;
45368;SDS011;51342;55.250;37.668;2024-03-06T03:09:36;8.43;;;3.40;;
45368;SDS011;51342;55.250;37.668;2024-03-06T03:12:09;5.27;;;3.63;;
45368;SDS011;51342;55.250;37.668;2024-03-06T03:14:42;5.50;;;3.13;;
45368;SDS011;51342;55.250;37.668;2024-03-06T03:17:14;7.77;;;3.17;;
45368;SDS011;51342;55.250;37.668;2024-03-06T03:19:46;7.43;;;3.60;;
45368;SDS011;51342;55.250;37.668;2024-03-06T03:22:17;5.83;;;3.30;;
45368;SDS011;51342;55.250;37.668;2024-03-06T03:24:49;7.43;;;3.87;;
45368;SDS011;51342;55.250;37.668;2024-03-06T03:27:20;7.30;;;3.40;;
45368;SDS011;51342;55.250;37.668;2024-03-06T03:29:52;5.60;;;3.83;;
45368;SDS011;51342;55.250;37.668;2024-03-06T03:32:23;4.93;;;3.60;;
45368;SDS011;51342;55.250;37.668;2024-03-06T03:34:55;9.40;;;4.67;;
45368;SDS011;51342;55.250;37.668;2024-03-06T03:37:26;8.70;;;4.77;;
45368;SDS011;51342;55.250;37.668;2024-03-06T03:39:59;8.27;;;5.03;;
45368;SDS011;51342;55.250;37.668;2024-03-06T03:42:30;7.60;;;4.50;;
45368;SDS011;51342;55.250;37.668;2024-03-06T03:45:01;7.97;;;4.37;;
45368;SDS011;51342;55.250;37.668;2024-03-06T03:47:34;7.67;;;3.90;;
45368;SDS011;51342;55.250;37.668;2024-03-06T03:50:05;7.40;;;4.50;;
45368;SDS011;51342;55.250;37.668;2024-03-06T03:52:39;7.20;;;4.20;;
45368;SDS011;51342;55.250;37.668;2024-03-06T03:55:12;6.80;;;4.37;;
45368;SDS011;51342;55.250;37.668;2024-03-06T03:57:44;7.87;;;4.60;;
45368;SDS011;51342;55.250;37.668;2024-03-06T04:00:15;6.50;;;4.17;;
45368;SDS011;51342;55.250;37.668;2024-03-06T04:02:47;8.17;;;5.03;;
45368;SDS011;51342;55.250;37.668;2024-03-06T04:05:19;10.67;;;5.20;;
45368;SDS011;51342;55.250;37.668;2024-03-06T04:07:50;9.67;;;4.93;;
45368;SDS011;51342;55.250;37.668;2024-03-06T04:10:22;7.13;;;4.47;;
45368;SDS011;51342;55.250;37.668;2024-03-06T04:12:53;7.70;;;4.43;;
45368;SDS011;51342;55.250;37.668;2024-03-06T04:15:26;7.63;;;4.70;;
45368;SDS011;51342;55.250;37.668;2024-03-06T04:17:58;9.67;;;4.60;;
45368;SDS011;51342;55.250;37.668;2024-03-06T04:20:29;6.63;;;4.23;;
45368;SDS011;51342;55.250;37.668;2024-03-06T04:23:00;7.17;;;4.50;;
45368;SDS011;51342;55.250;37.668;2024-03-06T04:25:32;8.63;;;4.83;;
45368;SDS011;51342;55.250;37.668;2024-03-06T04:28:04;7.13;;;4.10;;
45368;SDS011;51342;55.250;37.668;2024-03-06T04:30:38;7.53;;;4.33;;
45368;SDS011;51342;55.250;37.668;2024-03-06T04:33:09;7.53;;;4.17;;
45368;SDS011;51342;55.250;37.668;2024-03-06T04:35:44;8.70;;;4.90;;
45368;SDS011;51342;55.250;37.668;2024-03-06T04:38:16;8.63;;;4.40;;
45368;SDS011;51342;55.250;37.668;2024-03-06T04:40:47;9.03;;;4.00;;
45368;SDS011;51342;55.250;37.668;2024-03-06T04:43:19;7.83;;;4.17;;
45368;SDS011;51342;55.250;37.668;2024-03-06T04:45:50;6.77;;;4.23;;
45368;SDS011;51342;55.250;37.668;2024-03-06T04:48:22;9.17;;;5.07;;
45368;SDS011;51342;55.250;37.668;2024-03-06T04:50:53;12.10;;;4.60;;
45368;SDS011;51342;55.250;37.668;2024-03-06T04:53:25;7.90;;;4.60;;
45368;SDS011;51342;55.250;37.668;2024-03-06T04:55:56;11.90;;;5.70;;
45368;SDS011;51342;55.250;37.668;2024-03-06T04:58:28;8.93;;;4.73;;
45368;SDS011;51342;55.250;37.668;2024-03-06T05:00:59;11.93;;;5.77;;
45368;SDS011;51342;55.250;37.668;2024-03-06T05:03:30;11.30;;;5.43;;
45368;SDS011;51342;55.250;37.668;2024-03-06T05:06:02;9.60;;;5.10;;
45368;SDS011;51342;55.250;37.668;2024-03-06T05:08:33;10.30;;;5.90;;
45368;SDS011;51342;55.250;37.668;2024-03-06T05:11:05;13.97;;;5.43;;
45368;SDS011;51342;55.250;37.668;2024-03-06T05:13:37;10.63;;;5.37;;
45368;SDS011;51342;55.250;37.668;2024-03-06T05:16:08;11.13;;;5.87;;
45368;SDS011;51342;55.250;37.668;2024-03-06T05:18:40;9.40;;;5.67;;
45368;SDS011;51342;55.250;37.668;2024-03-06T05:21:11;11.73;;;5.63;;
45368;SDS011;51342;55.250;37.668;2024-03-06T05:23:42;9.33;;;5.13;;
45368;SDS011;51342;55.250;37.668;2024-03-06T05:26:14;9.97;;;5.00;;
45368;SDS011;51342;55.250;37.668;2024-03-06T05:28:46;8.27;;;4.50;;
45368;SDS011;51342;55.250;37.668;2024-03-06T05:31:18;9.97;;;5.40;;
45368;SDS011;51342;55.250;37.668;2024-03-06T05:33:54;9.77;;;4.67;;
45368;SDS011;51342;55.250;37.668;2024-03-06T05:36:26;13.30;;;7.73;;
45368;SDS011;51342;55.250;37.668;2024-03-06T05:38:57;10.60;;;5.73;;
45368;SDS011;51342;55.250;37.668;2024-03-06T05:41:29;9.63;;;4.83;;
45368;SDS011;51342;55.250;37.668;2024-03-06T05:44:00;7.13;;;4.13;;
45368;SDS011;51342;55.250;37.668;2024-03-06T05:46:31;8.17;;;4.00;;
45368;SDS011;51342;55.250;37.668;2024-03-06T05:49:03;8.67;;;3.90;;
45368;SDS011;51342;55.250;37.668;2024-03-06T05:51:35;6.57;;;4.20;;
45368;SDS011;51342;55.250;37.668;2024-03-06T05:54:07;11.30;;;5.00;;
45368;SDS011;51342;55.250;37.668;2024-03-06T05:56:41;8.40;;;4.20;;
45368;SDS011;51342;55.250;37.668;2024-03-06T05:59:13;7.10;;;4.10;;
45368;SDS011;51342;55.250;37.668;2024-03-06T06:01:44;10.30;;;3.73;;
45368;SDS011;51342;55.250;37.668;2024-03-06T06:04:16;6.77;;;3.83;;
45368;SDS011;51342;55.250;37.668;2024-03-06T06:06:48;10.43;;;4.80;;
45368;SDS011;51342;55.250;37.668;2024-03-06T06:09:19;7.60;;;3.87;;
45368;SDS011;51342;55.250;37.668;2024-03-06T06:11:51;9.83;;;4.30;;
45368;SDS011;51342;55.250;37.668;2024-03-06T06:14:22;8.63;;;4.07;;
45368;SDS011;51342;55.250;37.668;2024-03-06T06:16:54;9.20;;;3.80;;
45368;SDS011;51342;55.250;37.668;2024-03-06T06:19:27;9.97;;;3.80;;
45368;SDS011;51342;55.250;37.668;2024-03-06T06:21:59;8.20;;;4.00;;
45368;SDS011;51342;55.250;37.668;2024-03-06T06:24:30;8.03;;;3.97;;
45368;SDS011;51342;55.250;37.668;2024-03-06T06:27:01;9.77;;;4.47;;
45368;SDS011;51342;55.250;37.668;2024-03-06T06:29:33;11.57;;;4.23;;
45368;SDS011;51342;55.250;37.668;2024-03-06T06:32:05;5.23;;;3.50;;
45368;SDS011;51342;55.250;37.668;2024-03-06T06:34:36;6.83;;;3.50;;
45368;SDS011;51342;55.250;37.668;2024-03-06T06:37:08;7.17;;;3.90;;
45368;SDS011;51342;55.250;37.668;2024-03-06T06:39:39;6.53;;;3.80;;
45368;SDS011;51342;55.250;37.668;2024-03-06T06:42:10;8.53;;;4.07;;
45368;SDS011;51342;55.250;37.668;2024-03-06T06:44:42;8.03;;;3.67;;
45368;SDS011;51342;55.250;37.668;2024-03-06T06:47:13;6.80;;;3.13;;
45368;SDS011;51342;55.250;37.668;2024-03-06T06:49:45;7.40;;;3.57;;
45368;SDS011;51342;55.250;37.668;2024-03-06T06:52:16;7.20;;;3.77;;
45368;SDS011;51342;55.250;37.668;2024-03-06T06:54:48;8.40;;;3.60;;
45368;SDS011;51342;55.250;37.668;2024-03-06T06:57:21;7.63;;;3.37;;
45368;SDS011;51342;55.250;37.668;2024-03-06T06:59:52;7.20;;;3.90;;
45368;SDS011;51342;55.250;37.668;2024-03-06T07:02:23;7.43;;;3.87;;
45368;SDS011;51342;55.250;37.668;2024-03-06T07:04:55;7.07;;;3.00;;
45368;SDS011;51342;55.250;37.668;2024-03-06T07:07:28;9.87;;;3.97;;
45368;SDS011;51342;55.250;37.668;2024-03-06T07:09:59;7.77;;;3.43;;
45368;SDS011;51342;55.250;37.668;2024-03-06T07:12:31;7.30;;;3.37;;
45368;SDS011;51342;55.250;37.668;2024-03-06T07:15:02;6.73;;;3.33;;
45368;SDS011;51342;55.250;37.668;2024-03-06T07:17:34;8.70;;;3.60;;
45368;SDS011;51342;55.250;37.668;2024-03-06T07:20:06;8.20;;;4.00;;
45368;SDS011;51342;55.250;37.668;2024-03-06T07:22:39;8.10;;;3.33;;
45368;SDS011;51342;55.250;37.668;2024-03-06T07:25:11;8.13;;;3.90;;
45368;SDS011;51342;55.250;37.668;2024-03-06T07:27:42;10.77;;;4.53;;
45368;SDS011;51342;55.250;37.668;2024-03-06T07:30:14;10.03;;;3.70;;
45368;SDS011;51342;55.250;37.668;2024-03-06T07:32:46;9.70;;;3.67;;
45368;SDS011;51342;55.250;37.668;2024-03-06T07:35:17;8.07;;;3.60;;
45368;SDS011;51342;55.250;37.668;2024-03-06T07:37:49;8.93;;;2.97;;
45368;SDS011;51342;55.250;37.668;2024-03-06T07:40:20;9.63;;;3.23;;
45368;SDS011;51342;55.250;37.668;2024-03-06T07:42:52;7.97;;;3.40;;
45368;SDS011;51342;55.250;37.668;2024-03-06T07:45:23;8.07;;;3.20;;
45368;SDS011;51342;55.250;37.668;2024-03-06T07:47:57;8.20;;;3.73;;
45368;SDS011;51342;55.250;37.668;2024-03-06T07:50:29;7.77;;;3.30;;
45368;SDS011;51342;55.250;37.668;2024-03-06T07:53:00;7.73;;;3.07;;
45368;SDS011;51342;55.250;37.668;2024-03-06T07:55:33;9.37;;;3.43;;
45368;SDS011;51342;55.250;37.668;2024-03-06T07:58:04;5.80;;;3.40;;
45368;SDS011;51342;55.250;37.668;2024-03-06T08:00:36;10.07;;;3.90;;
45368;SDS011;51342;55.250;37.668;2024-03-06T08:03:07;7.47;;;2.93;;
45368;SDS011;51342;55.250;37.668;2024-03-06T08:05:39;7.90;;;3.33;;
45368;SDS011;51342;55.250;37.668;2024-03-06T08:08:10;9.03;;;4.33;;
45368;SDS011;51342;55.250;37.668;2024-03-06T08:10:42;7.07;;;3.20;;
45368;SDS011;51342;55.250;37.668;2024-03-06T08:13:15;5.63;;;2.67;;
45368;SDS011;51342;55.250;37.668;2024-03-06T08:15:50;8.00;;;2.93;;
45368;SDS011;51342;55.250;37.668;2024-03-06T08:18:22;7.27;;;2.63;;
45368;SDS011;51342;55.250;37.668;2024-03-06T08:20:53;6.47;;;2.60;;
45368;SDS011;51342;55.250;37.668;2024-03-06T08:23:25;6.53;;;2.60;;
45368;SDS011;51342;55.250;37.668;2024-03-06T08:25:56;5.63;;;2.60;;
45368;SDS011;51342;55.250;37.668;2024-03-06T08:28:28;6.30;;;2.90;;
45368;SDS011;51342;55.250;37.668;2024-03-06T08:30:59;6.33;;;2.50;;
45368;SDS011;51342;55.250;37.668;2024-03-06T08:33:31;5.43;;;2.60;;
45368;SDS011;51342;55.250;37.668;2024-03-06T08:36:03;6.33;;;3.00;;
45368;SDS011;51342;55.250;37.668;2024-03-06T08:38:34;5.67;;;2.20;;
45368;SDS011;51342;55.250;37.668;2024-03-06T08:41:06;6.17;;;2.43;;
45368;SDS011;51342;55.250;37.668;2024-03-06T08:43:37;5.70;;;2.60;;
45368;SDS011;51342;55.250;37.668;2024-03-06T08:46:09;6.60;;;2.37;;
45368;SDS011;51342;55.250;37.668;2024-03-06T08:48:40;6.50;;;2.13;;
45368;SDS011;51342;55.250;37.668;2024-03-06T08:51:12;4.50;;;2.40;;
45368;SDS011;51342;55.250;37.668;2024-03-06T08:53:45;6.50;;;3.10;;
45368;SDS011;51342;55.250;37.668;2024-03-06T08:56:16;3.43;;;2.03;;
45368;SDS011;51342;55.250;37.668;2024-03-06T08:58:49;6.30;;;2.50;;
45368;SDS011;51342;55.250;37.668;2024-03-06T09:01:21;4.60;;;2.33;;
45368;SDS011;51342;55.250;37.668;2024-03-06T09:03:53;6.63;;;2.67;;
45368;SDS011;51342;55.250;37.668;2024-03-06T09:06:24;7.77;;;2.40;;
45368;SDS011;51342;55.250;37.668;2024-03-06T09:08:55;3.67;;;2.20;;
45368;SDS011;51342;55.250;37.668;2024-03-06T09:11:27;4.70;;;2.23;;
45368;SDS011;51342;55.250;37.668;2024-03-06T09:13:59;6.50;;;2.60;;
45368;SDS011;51342;55.250;37.668;2024-03-06T09:16:30;6.17;;;2.73;;
45368;SDS011;51342;55.250;37.668;2024-03-06T09:19:02;8.53;;;3.97;;
45368;SDS011;51342;55.250;37.668;2024-03-06T09:21:33;5.80;;;2.73;;
45368;SDS011;51342;55.250;37.668;2024-03-06T09:24:05;6.10;;;2.30;;
45368;SDS011;51342;55.250;37.668;2024-03-06T09:26:36;6.23;;;2.70;;
45368;SDS011;51342;55.250;37.668;2024-03-06T09:29:08;6.17;;;2.50;;
45368;SDS011;51342;55.250;37.668;2024-03-06T09:31:40;7.27;;;2.47;;
45368;SDS011;51342;55.250;37.668;2024-03-06T09:34:11;6.07;;;2.40;;
45368;SDS011;51342;55.250;37.668;2024-03-06T09:36:47;4.93;;;2.20;;
45368;SDS011;51342;55.250;37.668;2024-03-06T09:39:20;5.83;;;2.20;;
45368;SDS011;51342;55.250;37.668;2024-03-06T09:41:53;5.23;;;2.80;;
45368;SDS011;51342;55.250;37.668;2024-03-06T09:44:26;7.17;;;2.30;;
45368;SDS011;51342;55.250;37.668;2024-03-06T09:46:59;6.20;;;2.10;;
45368;SDS011;51342;55.250;37.668;2024-03-06T09:49:34;5.03;;;1.80;;
45368;SDS011;51342;55.250;37.668;2024-03-06T09:52:06;3.07;;;1.80;;
45368;SDS011;51342;55.250;37.668;2024-03-06T09:54:37;5.13;;;1.80;;
45368;SDS011;51342;55.250;37.668;2024-03-06T09:57:10;3.20;;;1.57;;
45368;SDS011;51342;55.250;37.668;2024-03-06T09:59:43;3.87;;;1.70;;
45368;SDS011;51342;55.250;37.668;2024-03-06T10:02:21;4.07;;;2.30;;
45368;SDS011;51342;55.250;37.668;2024-03-06T10:05:21;7.75;;;2.15;;
45368;SDS011;51342;55.250;37.668;2024-03-06T10:07:54;2.80;;;1.43;;
45368;SDS011;51342;55.250;37.668;2024-03-06T10:10:25;3.47;;;1.63;;
45368;SDS011;51342;55.250;37.668;2024-03-06T10:12:57;3.37;;;2.20;;
45368;SDS011;51342;55.250;37.668;2024-03-06T10:15:30;4.03;;;1.90;;
45368;SDS011;51342;55.250;37.668;2024-03-06T10:18:10;3.93;;;1.60;;
45368;SDS011;51342;55.250;37.668;2024-03-06T10:20:43;4.07;;;1.77;;
45368;SDS011;51342;55.250;37.668;2024-03-06T10:23:14;4.23;;;2.00;;
45368;SDS011;51342;55.250;37.668;2024-03-06T10:25:47;5.70;;;2.50;;
45368;SDS011;51342;55.250;37.668;2024-03-06T10:28:23;4.35;;;1.58;;
45368;SDS011;51342;55.250;37.668;2024-03-06T10:31:02;4.67;;;1.97;;
45368;SDS011;51342;55.250;37.668;2024-03-06T10:33:35;5.00;;;1.83;;
45368;SDS011;51342;55.250;37.668;2024-03-06T10:36:09;3.80;;;1.83;;
45368;SDS011;51342;55.250;37.668;2024-03-06T10:38:42;5.53;;;2.27;;
45368;SDS011;51342;55.250;37.668;2024-03-06T10:41:15;3.90;;;2.13;;
45368;SDS011;51342;55.250;37.668;2024-03-06T10:43:55;4.43;;;2.60;;
45368;SDS011;51342;55.250;37.668;2024-03-06T10:46:27;3.63;;;2.10;;
45368;SDS011;51342;55.250;37.668;2024-03-06T10:48:59;7.07;;;2.17;;
45368;SDS011;51342;55.250;37.668;2024-03-06T10:51:34;4.70;;;2.17;;
45368;SDS011;51342;55.250;37.668;2024-03-06T10:54:07;6.60;;;2.47;;
45368;SDS011;51342;55.250;37.668;2024-03-06T10:56:39;4.63;;;2.40;;
45368;SDS011;51342;55.250;37.668;2024-03-06T10:59:14;4.63;;;2.23;;
45368;SDS011;51342;55.250;37.668;2024-03-06T11:01:47;4.73;;;2.40;;
45368;SDS011;51342;55.250;37.668;2024-03-06T11:04:20;7.03;;;1.90;;
45368;SDS011;51342;55.250;37.668;2024-03-06T11:06:51;6.00;;;2.30;;
45368;SDS011;51342;55.250;37.668;2024-03-06T11:09:24;6.03;;;2.57;;
45368;SDS011;51342;55.250;37.668;2024-03-06T11:11:56;4.33;;;2.30;;
45368;SDS011;51342;55.250;37.668;2024-03-06T11:14:30;6.67;;;2.43;;
45368;SDS011;51342;55.250;37.668;2024-03-06T11:17:03;4.73;;;2.27;;
45368;SDS011;51342;55.250;37.668;2024-03-06T11:26:04;3.87;;;1.93;;
45368;SDS011;51342;55.250;37.668;2024-03-06T11:31:08;5.83;;;2.03;;
45368;SDS011;51342;55.250;37.668;2024-03-06T11:33:53;6.73;;;2.50;;
45368;SDS011;51342;55.250;37.668;2024-03-06T11:36:28;4.73;;;1.93;;
45368;SDS011;51342;55.250;37.668;2024-03-06T11:44:16;6.87;;;2.20;;
45368;SDS011;51342;55.250;37.668;2024-03-06T11:47:05;5.80;;;2.33;;
45368;SDS011;51342;55.250;37.668;2024-03-06T11:49:39;3.43;;;1.80;;
45368;SDS011;51342;55.250;37.668;2024-03-06T11:52:11;8.80;;;2.80;;
45368;SDS011;51342;55.250;37.668;2024-03-06T11:54:42;4.07;;;2.53;;
45368;SDS011;51342;55.250;37.668;2024-03-06T11:57:14;4.60;;;2.27;;
45368;SDS011;51342;55.250;37.668;2024-03-06T11:59:47;6.47;;;2.47;;
45368;SDS011;51342;55.250;37.668;2024-03-06T12:02:18;5.00;;;2.40;;
45368;SDS011;51342;55.250;37.668;2024-03-06T12:04:51;6.50;;;2.40;;
45368;SDS011;51342;55.250;37.668;2024-03-06T12:07:23;5.60;;;2.27;;
45368;SDS011;51342;55.250;37.668;2024-03-06T12:09:54;3.43;;;2.03;;
45368;SDS011;51342;55.250;37.668;2024-03-06T12:12:29;6.27;;;2.57;;
45368;SDS011;51342;55.250;37.668;2024-03-06T12:15:03;5.87;;;2.27;;
45368;SDS011;51342;55.250;37.668;2024-03-06T12:17:41;4.37;;;2.30;;
45368;SDS011;51342;55.250;37.668;2024-03-06T12:20:21;4.83;;;2.33;;
45368;SDS011;51342;55.250;37.668;2024-03-06T12:22:53;6.87;;;2.73;;
45368;SDS011;51342;55.250;37.668;2024-03-06T12:25:27;8.37;;;2.50;;
45368;SDS011;51342;55.250;37.668;2024-03-06T12:28:06;4.33;;;2.17;;
45368;SDS011;51342;55.250;37.668;2024-03-06T12:30:42;5.23;;;2.13;;
45368;SDS011;51342;55.250;37.668;2024-03-06T12:33:18;6.30;;;2.37;;
45368;SDS011;51342;55.250;37.668;2024-03-06T12:36:00;3.70;;;2.47;;
45368;SDS011;51342;55.250;37.668;2024-03-06T12:38:32;7.00;;;2.73;;
45368;SDS011;51342;55.250;37.668;2024-03-06T12:41:04;7.23;;;2.50;;
45368;SDS011;51342;55.250;37.668;2024-03-06T12:43:36;4.50;;;2.47;;
45368;SDS011;51342;55.250;37.668;2024-03-06T12:46:08;6.23;;;2.10;;
45368;SDS011;51342;55.250;37.668;2024-03-06T12:48:39;5.07;;;2.17;;
45368;SDS011;51342;55.250;37.668;2024-03-06T12:51:11;6.70;;;2.80;;
45368;SDS011;51342;55.250;37.668;2024-03-06T12:53:43;6.20;;;2.40;;
45368;SDS011;51342;55.250;37.668;2024-03-06T12:56:14;4.17;;;2.30;;
45368;SDS011;51342;55.250;37.668;2024-03-06T12:58:46;4.97;;;2.40;;
45368;SDS011;51342;55.250;37.668;2024-03-06T13:01:17;5.90;;;2.30;;
45368;SDS011;51342;55.250;37.668;2024-03-06T13:03:49;4.03;;;2.20;;
45368;SDS011;51342;55.250;37.668;2024-03-06T13:06:20;8.90;;;2.60;;
45368;SDS011;51342;55.250;37.668;2024-03-06T13:08:52;5.40;;;2.10;;
45368;SDS011;51342;55.250;37.668;2024-03-06T13:11:24;6.93;;;2.20;;
45368;SDS011;51342;55.250;37.668;2024-03-06T13:13:55;4.63;;;2.40;;
45368;SDS011;51342;55.250;37.668;2024-03-06T13:16:26;4.60;;;2.27;;
45368;SDS011;51342;55.250;37.668;2024-03-06T13:18:58;4.87;;;2.30;;
45368;SDS011;51342;55.250;37.668;2024-03-06T13:21:31;4.43;;;2.10;;
45368;SDS011;51342;55.250;37.668;2024-03-06T13:24:02;6.47;;;2.17;;
45368;SDS011;51342;55.250;37.668;2024-03-06T13:26:34;5.10;;;2.33;;
45368;SDS011;51342;55.250;37.668;2024-03-06T13:29:08;4.77;;;2.43;;
45368;SDS011;51342;55.250;37.668;2024-03-06T13:31:40;5.97;;;2.57;;
45368;SDS011;51342;55.250;37.668;2024-03-06T13:34:11;5.73;;;2.13;;
45368;SDS011;51342;55.250;37.668;2024-03-06T13:36:42;5.60;;;3.07;;
45368;SDS011;51342;55.250;37.668;2024-03-06T13:39:14;4.97;;;2.33;;
45368;SDS011;51342;55.250;37.668;2024-03-06T13:41:46;5.67;;;2.80;;
45368;SDS011;51342;55.250;37.668;2024-03-06T13:44:17;6.03;;;2.57;;
45368;SDS011;51342;55.250;37.668;2024-03-06T13:46:49;8.17;;;3.00;;
45368;SDS011;51342;55.250;37.668;2024-03-06T13:49:40;7.53;;;2.60;;
45368;SDS011;51342;55.250;37.668;2024-03-06T13:52:12;5.90;;;2.83;;
45368;SDS011;51342;55.250;37.668;2024-03-06T13:54:46;6.87;;;2.83;;
45368;SDS011;51342;55.250;37.668;2024-03-06T13:57:18;10.57;;;3.17;;
45368;SDS011;51342;55.250;37.668;2024-03-06T13:59:50;7.37;;;2.70;;
45368;SDS011;51342;55.250;37.668;2024-03-06T14:02:21;9.70;;;3.07;;
45368;SDS011;51342;55.250;37.668;2024-03-06T14:04:53;7.83;;;2.60;;
45368;SDS011;51342;55.250;37.668;2024-03-06T14:07:24;8.57;;;3.47;;
45368;SDS011;51342;55.250;37.668;2024-03-06T14:09:56;5.63;;;2.93;;
45368;SDS011;51342;55.250;37.668;2024-03-06T14:12:28;6.90;;;3.40;;
45368;SDS011;51342;55.250;37.668;2024-03-06T14:14:59;8.37;;;2.77;;
45368;SDS011;51342;55.250;37.668;2024-03-06T14:17:34;7.73;;;3.07;;
45368;SDS011;51342;55.250;37.668;2024-03-06T14:20:06;9.47;;;3.00;;
45368;SDS011;51342;55.250;37.668;2024-03-06T14:22:38;7.77;;;2.73;;
45368;SDS011;51342;55.250;37.668;2024-03-06T14:25:09;6.50;;;2.60;;
45368;SDS011;51342;55.250;37.668;2024-03-06T14:27:41;7.47;;;2.83;;
45368;SDS011;51342;55.250;37.668;2024-03-06T14:30:13;8.73;;;2.87;;
45368;SDS011;51342;55.250;37.668;2024-03-06T14:32:46;6.20;;;3.33;;
45368;SDS011;51342;55.250;37.668;2024-03-06T14:35:17;7.83;;;3.10;;
45368;SDS011;51342;55.250;37.668;2024-03-06T14:37:49;7.00;;;3.00;;
45368;SDS011;51342;55.250;37.668;2024-03-06T14:40:20;5.90;;;3.00;;
45368;SDS011;51342;55.250;37.668;2024-03-06T14:42:51;8.77;;;2.83;;
45368;SDS011;51342;55.250;37.668;2024-03-06T14:45:23;5.57;;;2.77;;
45368;SDS011;51342;55.250;37.668;2024-03-06T14:47:54;10.40;;;2.60;;
45368;SDS011;51342;55.250;37.668;2024-03-06T14:50:26;8.73;;;3.83;;
45368;SDS011;51342;55.250;37.668;2024-03-06T14:52:57;10.30;;;3.20;;
45368;SDS011;51342;55.250;37.668;2024-03-06T14:55:29;6.93;;;3.40;;
45368;SDS011;51342;55.250;37.668;2024-03-06T14:58:00;10.57;;;3.10;;
45368;SDS011;51342;55.250;37.668;2024-03-06T15:00:32;11.83;;;3.67;;
45368;SDS011;51342;55.250;37.668;2024-03-06T15:03:03;10.03;;;3.60;;
45368;SDS011;51342;55.250;37.668;2024-03-06T15:05:36;10.20;;;3.43;;
45368;SDS011;51342;55.250;37.668;2024-03-06T15:08:07;6.83;;;2.93;;
45368;SDS011;51342;55.250;37.668;2024-03-06T15:10:38;10.20;;;3.47;;
45368;SDS011;51342;55.250;37.668;2024-03-06T15:13:10;8.57;;;3.37;;
45368;SDS011;51342;55.250;37.668;2024-03-06T15:15:44;6.87;;;3.40;;
45368;SDS011;51342;55.250;37.668;2024-03-06T15:18:16;6.07;;;3.30;;